Time;durP1;ratioP1;P1;durP2;ratioP2;P2;SDS_P1;SDS_P2;PMS_P1;PMS_P2;Temp;Humidity;BMP_temperature;BMP_pressure;BME280_temperature;BME280_humidity;BME280_pressure;Samples;Min_cycle;Max_cycle;Signal;HPM_P1;HPM_P2
2021/09/24 00:02:24;;;;;;;5.00;3.33;;;19.30;96.70;;;;;;5114722;27;20067;-73
2021/09/24 00:04:53;;;;;;;5.70;3.55;;;19.40;96.70;;;;;;5098004;27;20520;-73
2021/09/24 00:07:21;;;;;;;6.47;4.15;;;19.40;96.70;;;;;;5108670;27;20039;-73
2021/09/24 00:09:49;;;;;;;5.32;3.53;;;19.40;96.70;;;;;;5121278;27;20524;-73
2021/09/24 00:12:17;;;;;;;4.43;3.45;;;19.30;96.70;;;;;;5116243;27;20031;-73
2021/09/24 00:14:45;;;;;;;8.43;3.90;;;19.40;96.70;;;;;;5114074;27;20039;-73
2021/09/24 00:17:13;;;;;;;4.07;3.63;;;19.40;96.70;;;;;;5121793;27;20043;-73
2021/09/24 00:19:43;;;;;;;7.28;3.40;;;19.40;96.70;;;;;;5117376;27;20038;-73
2021/09/24 00:22:11;;;;;;;6.60;3.28;;;19.30;96.70;;;;;;5112620;27;20439;-73
2021/09/24 00:24:39;;;;;;;5.90;3.28;;;19.10;96.70;;;;;;5112725;27;20130;-73
2021/09/24 00:27:07;;;;;;;6.63;3.50;;;19.10;96.70;;;;;;5115985;27;20059;-73
2021/09/24 00:29:35;;;;;;;6.30;4.03;;;19.10;96.70;;;;;;5123208;27;20039;-73
2021/09/24 00:32:03;;;;;;;5.70;3.00;;;19.20;96.70;;;;;;5126474;27;20150;-73
2021/09/24 00:34:31;;;;;;;4.28;2.80;;;19.10;96.70;;;;;;5119137;27;20123;-73
2021/09/24 00:37:01;;;;;;;3.42;2.80;;;19.10;96.70;;;;;;5114747;27;20035;-73
2021/09/24 00:39:29;;;;;;;4.75;2.83;;;19.20;96.70;;;;;;5114117;27;20032;-73
2021/09/24 00:41:57;;;;;;;4.18;2.55;;;19.10;96.70;;;;;;5114975;27;20066;-73
2021/09/24 00:44:38;;;;;;;3.78;2.60;;;19.10;96.70;;;;;;5118687;27;20040;-73
2021/09/24 00:47:07;;;;;;;3.03;2.45;;;19.00;96.70;;;;;;5120259;27;20035;-73
2021/09/24 00:49:35;;;;;;;3.35;2.80;;;19.00;96.70;;;;;;5110517;27;20420;-73
2021/09/24 00:52:06;;;;;;;3.58;2.22;;;19.00;96.70;;;;;;5111543;27;20043;-73
2021/09/24 00:54:34;;;;;;;3.92;2.35;;;18.90;96.70;;;;;;5113912;27;20466;-73
2021/09/24 00:57:03;;;;;;;2.83;2.50;;;19.00;96.70;;;;;;5117958;27;20408;-73
2021/09/24 00:59:31;;;;;;;3.55;2.22;;;18.80;96.70;;;;;;5112222;27;20417;-73
2021/09/24 01:01:59;;;;;;;3.47;2.35;;;18.80;96.70;;;;;;5120272;27;20096;-73
2021/09/24 01:04:28;;;;;;;4.40;2.50;;;18.70;96.70;;;;;;5128215;27;20031;-73
2021/09/24 01:06:57;;;;;;;2.72;2.15;;;18.60;96.70;;;;;;5122859;27;20104;-73
2021/09/24 01:09:26;;;;;;;3.50;2.58;;;18.60;96.70;;;;;;5118255;27;20118;-73
2021/09/24 01:11:55;;;;;;;3.35;2.05;;;18.50;96.70;;;;;;5118714;27;20045;-73
2021/09/24 01:14:27;;;;;;;3.08;2.38;;;18.50;96.70;;;;;;5110743;27;20041;-73
2021/09/24 01:16:56;;;;;;;3.65;2.47;;;18.50;96.70;;;;;;5118240;27;20445;-73
2021/09/24 01:19:24;;;;;;;4.43;2.30;;;18.40;96.70;;;;;;5114283;27;20397;-73
2021/09/24 01:21:54;;;;;;;2.88;2.00;;;18.40;96.70;;;;;;5114611;27;20088;-73
2021/09/24 01:24:22;;;;;;;2.72;2.38;;;18.40;96.70;;;;;;5126928;27;21361;-73
2021/09/24 01:26:54;;;;;;;3.78;2.38;;;18.40;96.70;;;;;;5122654;27;20043;-73
2021/09/24 01:29:24;;;;;;;4.40;2.50;;;18.40;96.70;;;;;;5110210;27;20039;-74
2021/09/24 01:31:56;;;;;;;3.28;2.30;;;18.50;96.70;;;;;;5112877;27;20082;-73
2021/09/24 01:34:24;;;;;;;3.15;2.40;;;18.50;96.70;;;;;;5112801;27;20035;-73
2021/09/24 01:36:54;;;;;;;8.38;2.70;;;18.50;96.70;;;;;;5118243;27;20043;-73
2021/09/24 01:39:22;;;;;;;3.50;2.53;;;18.50;96.70;;;;;;5121900;27;20039;-73
2021/09/24 01:41:51;;;;;;;3.50;2.80;;;18.40;96.70;;;;;;5120036;27;20058;-73
2021/09/24 01:44:19;;;;;;;4.28;2.65;;;18.30;96.70;;;;;;5118847;27;20541;-73
2021/09/24 01:46:47;;;;;;;3.15;2.67;;;18.20;96.70;;;;;;5109424;27;20070;-73
2021/09/24 01:49:15;;;;;;;5.22;3.20;;;18.10;96.70;;;;;;5114762;27;20054;-73
2021/09/24 01:51:45;;;;;;;6.47;2.65;;;18.00;96.70;;;;;;5114003;27;20031;-73
2021/09/24 01:54:16;;;;;;;3.53;2.70;;;18.00;96.70;;;;;;5111998;27;20054;-73
2021/09/24 01:56:44;;;;;;;5.38;3.20;;;18.00;96.70;;;;;;5096359;28;20146;-73
2021/09/24 01:59:12;;;;;;;4.55;2.92;;;18.00;96.70;;;;;;5117082;27;20035;-73
2021/09/24 02:01:40;;;;;;;3.88;3.05;;;17.90;96.70;;;;;;5122912;27;20049;-73
2021/09/24 02:04:09;;;;;;;4.03;2.60;;;17.80;96.70;;;;;;5116039;27;20080;-73
2021/09/24 02:06:37;;;;;;;4.90;3.10;;;17.80;96.70;;;;;;5118218;27;20043;-74
2021/09/24 02:09:07;;;;;;;4.07;2.85;;;17.70;96.70;;;;;;5117974;27;20031;-72
2021/09/24 02:11:37;;;;;;;5.43;3.95;;;17.80;96.70;;;;;;5115795;27;20048;-72
2021/09/24 02:14:05;;;;;;;5.97;3.53;;;17.70;96.70;;;;;;5121897;27;20062;-72
2021/09/24 02:16:33;;;;;;;7.10;3.97;;;17.60;96.70;;;;;;5119687;27;20135;-72
2021/09/24 02:19:01;;;;;;;7.28;3.60;;;17.60;96.70;;;;;;5116384;27;20038;-72
2021/09/24 02:21:29;;;;;;;4.47;3.78;;;17.60;96.70;;;;;;5121170;27;20473;-72
2021/09/24 02:23:57;;;;;;;5.93;3.78;;;17.70;96.70;;;;;;5116777;27;20122;-72
2021/09/24 02:26:26;;;;;;;8.90;4.20;;;17.70;96.70;;;;;;5112396;27;20096;-72
2021/09/24 02:29:10;;;;;;;9.05;4.75;;;17.70;96.70;;;;;;5115059;27;20425;-72
2021/09/24 02:31:38;;;;;;;4.88;3.72;;;17.50;96.70;;;;;;5112822;27;20036;-72
2021/09/24 02:34:07;;;;;;;4.60;3.45;;;17.60;96.70;;;;;;5117504;27;20500;-72
2021/09/24 02:36:36;;;;;;;5.47;3.95;;;17.70;96.70;;;;;;5106277;27;20190;-72
2021/09/24 02:39:04;;;;;;;6.65;3.75;;;17.70;96.70;;;;;;5105152;27;20084;-72
2021/09/24 02:41:32;;;;;;;5.05;3.20;;;17.60;96.70;;;;;;5099687;27;20050;-72
2021/09/24 02:44:00;;;;;;;3.53;3.10;;;17.60;96.70;;;;;;5122335;27;20047;-72
2021/09/24 02:46:30;;;;;;;7.13;3.33;;;17.60;96.70;;;;;;5110443;27;20531;-72
2021/09/24 02:48:58;;;;;;;4.68;3.10;;;17.40;96.70;;;;;;5099673;27;20047;-72
2021/09/24 02:51:26;;;;;;;3.97;3.28;;;17.40;96.70;;;;;;5094019;27;20099;-72
2021/09/24 02:53:54;;;;;;;5.57;3.33;;;17.40;96.70;;;;;;5114498;27;20138;-72
2021/09/24 02:56:22;;;;;;;5.25;3.75;;;17.50;96.70;;;;;;5116839;27;20462;-72
2021/09/24 02:58:50;;;;;;;3.63;2.85;;;17.60;96.70;;;;;;5116191;27;20591;-72
2021/09/24 03:01:18;;;;;;;3.72;3.35;;;17.40;96.70;;;;;;5114321;27;20322;-72
2021/09/24 03:03:48;;;;;;;3.85;3.13;;;17.60;96.70;;;;;;5130629;27;20043;-72
2021/09/24 03:06:16;;;;;;;6.00;3.38;;;17.60;96.70;;;;;;5119379;27;20032;-72
2021/09/24 03:08:44;;;;;;;4.75;3.40;;;17.50;96.70;;;;;;5122057;27;20511;-72
2021/09/24 03:11:13;;;;;;;3.38;2.85;;;17.40;96.70;;;;;;5112293;27;20634;-72
2021/09/24 03:13:40;;;;;;;4.97;2.60;;;17.40;96.70;;;;;;5113914;27;20456;-72
2021/09/24 03:16:08;;;;;;;3.38;2.60;;;17.30;96.70;;;;;;5115415;27;20042;-72
2021/09/24 03:18:37;;;;;;;5.47;2.67;;;17.20;96.70;;;;;;5114881;27;20040;-72
2021/09/24 03:21:06;;;;;;;4.97;2.63;;;17.20;96.70;;;;;;5120738;27;20043;-72
2021/09/24 03:23:35;;;;;;;2.75;2.45;;;17.20;96.70;;;;;;5113600;27;20086;-72
2021/09/24 03:26:03;;;;;;;4.68;2.75;;;17.20;96.70;;;;;;5117591;27;20051;-72
2021/09/24 03:28:32;;;;;;;5.43;2.90;;;17.20;96.70;;;;;;5114654;27;20086;-72
2021/09/24 03:31:00;;;;;;;3.88;2.65;;;17.20;96.70;;;;;;5114194;27;20073;-72
2021/09/24 03:33:28;;;;;;;3.67;2.70;;;17.10;96.70;;;;;;5123144;27;20134;-72
2021/09/24 03:35:56;;;;;;;4.43;2.58;;;17.00;96.70;;;;;;5116964;27;20548;-72
2021/09/24 03:38:26;;;;;;;4.07;2.80;;;17.10;96.70;;;;;;5098704;28;20043;-72
2021/09/24 03:40:56;;;;;;;3.92;2.55;;;17.10;96.70;;;;;;5109824;27;20039;-72
2021/09/24 03:43:24;;;;;;;6.10;2.60;;;17.20;96.70;;;;;;5105632;27;20484;-72
2021/09/24 03:45:52;;;;;;;5.40;3.20;;;17.30;96.70;;;;;;5117815;27;20039;-72
2021/09/24 03:48:20;;;;;;;3.45;2.15;;;17.20;96.70;;;;;;5109059;27;20039;-71
2021/09/24 03:50:49;;;;;;;2.97;2.20;;;17.20;96.70;;;;;;5118212;27;20565;-72
2021/09/24 03:53:18;;;;;;;4.50;2.38;;;17.10;96.70;;;;;;5088687;27;20055;-72
2021/09/24 03:55:52;;;;;;;2.60;2.20;;;17.10;96.70;;;;;;5123511;27;20050;-72
2021/09/24 03:58:20;;;;;;;3.65;2.60;;;17.10;96.70;;;;;;5118374;27;20043;-72
2021/09/24 04:00:49;;;;;;;3.08;2.33;;;17.10;96.70;;;;;;5117499;27;20050;-72
2021/09/24 04:03:17;;;;;;;3.08;2.10;;;17.00;96.70;;;;;;5120141;27;20027;-72
2021/09/24 04:05:46;;;;;;;3.30;2.45;;;17.00;96.70;;;;;;5121932;27;20047;-72
2021/09/24 04:08:14;;;;;;;3.42;2.42;;;17.00;96.70;;;;;;5114434;27;20070;-72
2021/09/24 04:10:42;;;;;;;2.70;2.05;;;16.90;96.70;;;;;;5104681;27;20043;-72
2021/09/24 04:13:12;;;;;;;3.95;2.53;;;17.00;96.70;;;;;;5101238;27;20168;-72
2021/09/24 04:15:40;;;;;;;3.88;2.80;;;17.00;96.70;;;;;;5113853;27;20055;-72
2021/09/24 04:18:08;;;;;;;10.27;5.88;;;16.90;96.70;;;;;;5117664;27;20140;-72
2021/09/24 04:20:36;;;;;;;14.77;9.45;;;16.90;96.70;;;;;;5117878;27;20051;-73
2021/09/24 04:23:04;;;;;;;15.27;9.45;;;16.90;96.70;;;;;;5122259;27;20500;-72
2021/09/24 04:25:33;;;;;;;15.95;9.98;;;16.80;96.70;;;;;;5119717;27;20516;-72
2021/09/24 04:28:01;;;;;;;17.77;12.23;;;16.80;96.70;;;;;;5116502;27;20055;-72
2021/09/24 04:30:31;;;;;;;18.00;13.15;;;16.80;96.70;;;;;;5123730;27;20054;-72
2021/09/24 04:32:59;;;;;;;20.55;13.45;;;16.90;96.70;;;;;;5113456;27;20051;-72
2021/09/24 04:35:27;;;;;;;16.77;12.35;;;16.80;96.70;;;;;;5118456;27;20072;-72
2021/09/24 04:37:55;;;;;;;17.38;12.95;;;16.80;96.70;;;;;;5122409;27;20035;-72
2021/09/24 04:40:23;;;;;;;19.80;12.77;;;16.80;96.70;;;;;;5122007;27;20035;-72
2021/09/24 04:42:51;;;;;;;16.80;12.18;;;16.70;96.70;;;;;;5115855;27;20063;-72
2021/09/24 04:45:19;;;;;;;13.05;9.85;;;16.70;96.70;;;;;;5124994;27;20042;-72
2021/09/24 04:47:48;;;;;;;15.07;9.82;;;16.60;96.70;;;;;;5117361;27;20039;-72
2021/09/24 04:50:16;;;;;;;13.27;8.75;;;16.60;96.70;;;;;;5120482;27;20039;-72
2021/09/24 04:52:44;;;;;;;13.48;8.02;;;16.60;96.70;;;;;;5124727;27;20046;-72
2021/09/24 04:55:12;;;;;;;10.23;6.50;;;16.70;96.70;;;;;;5110074;27;20527;-72
2021/09/24 04:57:40;;;;;;;8.60;5.88;;;16.70;96.70;;;;;;5114860;27;20054;-72
2021/09/24 05:00:11;;;;;;;6.18;4.38;;;16.60;96.70;;;;;;5118279;27;20292;-72
2021/09/24 05:02:40;;;;;;;6.78;4.07;;;16.50;96.70;;;;;;5121900;27;20056;-71
2021/09/24 05:05:10;;;;;;;5.90;3.92;;;16.50;96.70;;;;;;5111211;27;20067;-72
2021/09/24 05:07:38;;;;;;;10.52;6.47;;;16.50;96.70;;;;;;5115602;27;20508;-72
2021/09/24 05:10:08;;;;;;;13.18;8.10;;;16.60;96.70;;;;;;5112645;27;20040;-72
2021/09/24 05:12:36;;;;;;;10.65;7.88;;;16.50;96.70;;;;;;5121475;27;20096;-72
2021/09/24 05:15:05;;;;;;;10.48;7.32;;;16.40;96.70;;;;;;5122046;27;20605;-72
2021/09/24 05:17:33;;;;;;;10.43;6.35;;;16.50;96.70;;;;;;5112745;27;20042;-71
2021/09/24 05:20:02;;;;;;;7.18;5.55;;;16.50;96.70;;;;;;5113817;27;20047;-71
2021/09/24 05:22:31;;;;;;;7.60;4.78;;;16.50;96.70;;;;;;5114996;27;20043;-72
2021/09/24 05:24:59;;;;;;;7.63;4.72;;;16.50;96.70;;;;;;5117162;27;20862;-72
2021/09/24 05:27:27;;;;;;;7.53;5.13;;;16.50;96.70;;;;;;5113380;27;20496;-72
2021/09/24 05:29:55;;;;;;;5.85;4.28;;;16.50;96.70;;;;;;5122023;27;20592;-72
2021/09/24 05:32:23;;;;;;;7.38;3.75;;;16.50;96.70;;;;;;5111212;27;20039;-71
2021/09/24 05:34:52;;;;;;;5.63;3.55;;;16.50;96.70;;;;;;5114845;27;20039;-72
2021/09/24 05:37:20;;;;;;;7.75;3.83;;;16.50;96.70;;;;;;5109590;27;20096;-71
2021/09/24 05:39:49;;;;;;;6.88;3.60;;;16.60;96.70;;;;;;5108025;27;20039;-71
2021/09/24 05:42:17;;;;;;;6.78;3.28;;;16.70;96.70;;;;;;5122403;27;20461;-72
2021/09/24 05:44:45;;;;;;;8.73;4.07;;;16.70;96.70;;;;;;5110034;27;20126;-71
2021/09/24 05:47:13;;;;;;;11.40;4.65;;;16.70;96.70;;;;;;5098614;27;20035;-72
2021/09/24 05:49:41;;;;;;;8.25;3.75;;;16.70;96.70;;;;;;5115002;27;20039;-71
2021/09/24 05:52:09;;;;;;;6.05;3.60;;;16.60;96.70;;;;;;5113757;27;20397;-72
2021/09/24 05:54:37;;;;;;;14.75;10.88;;;16.60;96.70;;;;;;5115538;27;20054;-72
2021/09/24 05:57:07;;;;;;;11.30;8.98;;;16.70;96.70;;;;;;5120364;27;20034;-72
2021/09/24 05:59:35;;;;;;;11.13;7.82;;;16.80;96.70;;;;;;5116035;27;20039;-71
2021/09/24 06:02:03;;;;;;;14.18;8.30;;;16.80;96.70;;;;;;5120129;27;20063;-72
2021/09/24 06:04:31;;;;;;;10.25;6.55;;;16.70;96.70;;;;;;5120310;27;20048;-72
2021/09/24 06:06:59;;;;;;;6.40;4.97;;;16.70;96.70;;;;;;5114477;27;20046;-71
2021/09/24 06:09:27;;;;;;;8.43;4.20;;;16.80;96.70;;;;;;5104791;27;20047;-71
2021/09/24 06:11:55;;;;;;;6.55;4.55;;;16.80;96.70;;;;;;5108897;27;20256;-72
2021/09/24 06:14:25;;;;;;;8.15;4.43;;;16.80;96.70;;;;;;5110102;27;20527;-71
2021/09/24 06:16:53;;;;;;;8.30;4.80;;;16.60;96.70;;;;;;5109917;27;20039;-72
2021/09/24 06:19:21;;;;;;;8.50;5.82;;;16.60;96.70;;;;;;5117309;27;20047;-72
2021/09/24 06:21:49;;;;;;;12.93;7.13;;;16.80;96.70;;;;;;5133300;27;20039;-71
2021/09/24 06:24:17;;;;;;;14.45;6.43;;;16.90;96.70;;;;;;5117946;27;20042;-71
2021/09/24 06:26:45;;;;;;;9.45;5.78;;;16.90;96.70;;;;;;5111469;27;20540;-72
2021/09/24 06:29:13;;;;;;;12.63;6.47;;;16.90;96.70;;;;;;5115741;27;20075;-72
2021/09/24 06:31:43;;;;;;;11.20;6.07;;;17.00;96.70;;;;;;5110532;27;20076;-72
2021/09/24 06:34:11;;;;;;;10.90;6.32;;;16.90;96.70;;;;;;5113276;27;20043;-72
2021/09/24 06:36:39;;;;;;;12.00;6.18;;;17.00;96.70;;;;;;5115388;27;20054;-72
2021/09/24 06:39:07;;;;;;;11.63;6.22;;;17.10;96.70;;;;;;5114856;27;20039;-71
2021/09/24 06:41:35;;;;;;;12.43;7.40;;;17.20;96.70;;;;;;5116197;27;20740;-72
2021/09/24 06:44:04;;;;;;;10.77;6.72;;;17.30;96.70;;;;;;5098227;28;20411;-72
2021/09/24 06:46:36;;;;;;;13.35;7.40;;;17.20;96.70;;;;;;5110949;27;20308;-78
2021/09/24 06:49:06;;;;;;;12.23;8.02;;;17.30;96.70;;;;;;5117487;27;20034;-74
2021/09/24 06:51:34;;;;;;;11.93;8.20;;;17.50;96.70;;;;;;5122388;27;20038;-74
2021/09/24 06:54:03;;;;;;;16.60;8.57;;;17.50;96.70;;;;;;5119373;27;20108;-74
2021/09/24 06:56:31;;;;;;;17.20;8.75;;;17.50;96.70;;;;;;5120281;27;20054;-74
2021/09/24 06:59:00;;;;;;;12.38;8.80;;;17.70;96.70;;;;;;5114016;27;20055;-73
2021/09/24 07:01:28;;;;;;;14.82;8.90;;;17.80;96.70;;;;;;5117743;27;20071;-74
2021/09/24 07:03:57;;;;;;;13.27;8.63;;;17.80;96.70;;;;;;5112830;27;20050;-71
2021/09/24 07:06:27;;;;;;;13.60;8.90;;;18.00;96.70;;;;;;5113539;27;20072;-72
2021/09/24 07:08:55;;;;;;;14.80;8.13;;;18.10;96.70;;;;;;5117482;27;20457;-72
2021/09/24 07:11:24;;;;;;;13.27;9.35;;;18.20;96.70;;;;;;5112767;27;20126;-72
2021/09/24 07:13:52;;;;;;;10.93;7.97;;;18.20;96.70;;;;;;5116919;28;20515;-72
2021/09/24 07:16:20;;;;;;;11.43;7.88;;;17.90;96.70;;;;;;5118860;27;20518;-72
2021/09/24 07:18:48;;;;;;;13.70;8.18;;;17.90;96.70;;;;;;5116054;27;20063;-73
2021/09/24 07:21:16;;;;;;;13.57;8.75;;;18.10;96.70;;;;;;5111711;27;20043;-72
2021/09/24 07:23:46;;;;;;;14.95;8.60;;;18.30;96.70;;;;;;5117920;27;20522;-72
2021/09/24 07:26:14;;;;;;;12.70;7.43;;;18.40;96.70;;;;;;5119366;27;20590;-73
2021/09/24 07:28:42;;;;;;;8.80;6.35;;;18.40;96.70;;;;;;5120569;27;20054;-72
2021/09/24 07:31:10;;;;;;;9.10;6.78;;;18.50;96.70;;;;;;5128452;27;20069;-72
2021/09/24 07:33:38;;;;;;;13.15;8.35;;;18.60;96.70;;;;;;5120598;27;20043;-72
2021/09/24 07:36:06;;;;;;;18.67;10.07;;;18.70;96.70;;;;;;5130178;27;20074;-72
2021/09/24 07:38:34;;;;;;;15.07;8.40;;;18.80;96.70;;;;;;5135549;27;20043;-72
2021/09/24 07:41:04;;;;;;;10.80;7.20;;;18.90;96.70;;;;;;5125277;27;20054;-73
2021/09/24 07:43:32;;;;;;;9.50;6.20;;;18.90;96.70;;;;;;5120133;27;20424;-72
2021/09/24 07:46:01;;;;;;;10.95;6.68;;;18.90;96.70;;;;;;5122287;27;20040;-72
2021/09/24 07:48:29;;;;;;;9.07;6.38;;;18.90;96.70;;;;;;5118596;27;20400;-73
2021/09/24 07:50:57;;;;;;;9.45;6.72;;;19.00;96.70;;;;;;5123124;27;20123;-72
2021/09/24 07:53:25;;;;;;;8.57;6.03;;;19.10;96.70;;;;;;5114584;27;20036;-73
2021/09/24 07:55:53;;;;;;;9.18;6.13;;;19.10;96.70;;;;;;5122686;27;20651;-73
2021/09/24 07:58:23;;;;;;;12.43;8.05;;;19.30;96.70;;;;;;5112863;27;20084;-72
2021/09/24 08:00:51;;;;;;;9.65;6.78;;;19.40;96.70;;;;;;5121037;27;20134;-72
2021/09/24 08:03:20;;;;;;;8.07;6.35;;;19.40;96.70;;;;;;5125395;27;20051;-72
2021/09/24 08:05:48;;;;;;;7.32;5.97;;;19.50;96.70;;;;;;5115896;27;20104;-72
2021/09/24 08:08:16;;;;;;;7.13;5.97;;;19.50;96.70;;;;;;5122847;27;20571;-72
2021/09/24 08:10:44;;;;;;;11.38;6.15;;;19.50;96.70;;;;;;5120042;27;20039;-72
2021/09/24 08:13:12;;;;;;;8.00;6.32;;;19.60;96.70;;;;;;5108968;27;20043;-72
2021/09/24 08:15:45;;;;;;;9.48;6.60;;;19.80;96.70;;;;;;5104583;27;20050;-72
2021/09/24 08:18:16;;;;;;;9.98;6.38;;;19.90;96.70;;;;;;5111857;27;20031;-72
2021/09/24 08:20:45;;;;;;;7.88;5.97;;;19.90;96.70;;;;;;5123063;27;20076;-75
2021/09/24 08:23:13;;;;;;;9.48;6.13;;;20.00;96.70;;;;;;5113956;27;20069;-74
2021/09/24 08:25:41;;;;;;;8.45;5.78;;;20.00;96.70;;;;;;5125427;27;20114;-74
2021/09/24 08:28:10;;;;;;;8.50;5.57;;;20.10;96.70;;;;;;5112236;27;20522;-74
2021/09/24 08:30:39;;;;;;;11.90;6.10;;;20.20;96.70;;;;;;5113157;27;20042;-74
2021/09/24 08:33:09;;;;;;;8.35;5.63;;;20.30;96.70;;;;;;5115971;27;20062;-74
2021/09/24 08:35:37;;;;;;;8.32;5.53;;;20.40;96.70;;;;;;5121503;27;20493;-73
2021/09/24 08:38:05;;;;;;;10.57;5.90;;;20.40;96.70;;;;;;5127909;27;20044;-74
2021/09/24 08:40:33;;;;;;;8.23;5.85;;;20.40;96.70;;;;;;5109816;27;20439;-74
2021/09/24 08:43:02;;;;;;;6.15;5.40;;;20.50;96.70;;;;;;5119912;27;20047;-73
2021/09/24 08:45:33;;;;;;;8.20;5.53;;;20.50;96.70;;;;;;5116724;27;20048;-74
2021/09/24 08:48:04;;;;;;;13.20;5.88;;;20.60;96.70;;;;;;5123593;27;20039;-73
2021/09/24 08:50:35;;;;;;;8.00;5.25;;;20.60;96.70;;;;;;5113978;27;20047;-74
2021/09/24 08:53:04;;;;;;;9.55;5.38;;;20.70;96.70;;;;;;5117696;27;20168;-74
2021/09/24 08:55:33;;;;;;;10.18;6.45;;;20.70;96.70;;;;;;5131716;27;20500;-74
2021/09/24 08:58:01;;;;;;;8.40;5.65;;;20.80;96.70;;;;;;5119624;27;20051;-74
2021/09/24 09:00:30;;;;;;;11.93;5.32;;;20.90;96.70;;;;;;5120031;27;20152;-74
2021/09/24 09:03:02;;;;;;;9.15;6.30;;;21.00;96.70;;;;;;5102231;27;20047;-75
2021/09/24 09:05:37;;;;;;;10.63;6.38;;;21.10;96.70;;;;;;5114402;27;20097;-74
2021/09/24 09:08:14;;;;;;;11.00;7.43;;;21.10;96.70;;;;;;5122110;27;20426;-74
2021/09/24 09:10:45;;;;;;;13.27;7.50;;;21.10;96.70;;;;;;5106882;27;20049;-75
2021/09/24 09:13:16;;;;;;;8.52;5.40;;;21.20;96.70;;;;;;5095703;27;20625;-74
2021/09/24 09:15:56;;;;;;;11.68;6.50;;;21.30;96.70;;;;;;5114307;27;20508;-74
2021/09/24 09:18:24;;;;;;;10.52;6.07;;;21.30;96.70;;;;;;5120017;27;20078;-73
2021/09/24 09:20:54;;;;;;;7.22;4.78;;;21.40;96.70;;;;;;5119585;27;20568;-74
2021/09/24 09:23:24;;;;;;;7.25;3.83;;;21.50;96.70;;;;;;5127169;27;20043;-74
2021/09/24 09:25:54;;;;;;;8.00;4.53;;;21.60;96.70;;;;;;5121670;27;20039;-73
2021/09/24 09:28:30;;;;;;;7.13;4.55;;;21.80;96.70;;;;;;5117392;27;20051;-73
2021/09/24 09:30:59;;;;;;;9.80;4.68;;;21.90;96.70;;;;;;5121020;27;20090;-73
2021/09/24 09:33:28;;;;;;;7.72;4.40;;;22.10;96.70;;;;;;5125668;27;20042;-73
2021/09/24 09:35:59;;;;;;;6.00;3.90;;;22.10;96.70;;;;;;5119514;27;20249;-74
2021/09/24 09:38:29;;;;;;;5.82;3.58;;;22.20;96.70;;;;;;5120764;27;20043;-74
2021/09/24 09:41:01;;;;;;;7.38;4.40;;;22.30;96.70;;;;;;5115337;27;20046;-73
2021/09/24 09:43:33;;;;;;;6.43;4.22;;;22.50;96.70;;;;;;5121929;27;20047;-73
2021/09/24 09:46:02;;;;;;;5.03;3.45;;;22.40;96.70;;;;;;5125556;27;20095;-74
2021/09/24 09:48:31;;;;;;;5.00;3.03;;;22.50;96.70;;;;;;5110701;27;20039;-74
2021/09/24 09:51:00;;;;;;;11.13;3.72;;;22.60;96.70;;;;;;5119633;27;20563;-74
2021/09/24 09:53:29;;;;;;;5.15;2.92;;;22.80;96.70;;;;;;5109550;27;20230;-74
2021/09/24 09:55:59;;;;;;;4.55;3.10;;;22.80;96.70;;;;;;5120497;27;20058;-74
2021/09/24 09:58:31;;;;;;;5.30;3.38;;;22.80;96.70;;;;;;5113691;27;20503;-73
2021/09/24 10:01:06;;;;;;;6.03;3.20;;;23.00;96.70;;;;;;5108997;27;20071;-74
2021/09/24 10:03:37;;;;;;;3.83;2.97;;;23.10;96.70;;;;;;5093060;27;20039;-74
2021/09/24 10:06:20;;;;;;;4.53;3.15;;;23.30;96.70;;;;;;5103318;27;20304;-74
2021/09/24 10:08:51;;;;;;;4.85;3.38;;;23.30;96.70;;;;;;5115364;27;20043;-74
2021/09/24 10:11:20;;;;;;;5.03;3.10;;;23.50;96.70;;;;;;5110248;27;20069;-74
2021/09/24 10:13:57;;;;;;;4.70;3.15;;;23.60;96.70;;;;;;5115095;27;20039;-74
2021/09/24 10:16:27;;;;;;;3.38;2.47;;;23.60;96.70;;;;;;5114031;27;20047;-74
2021/09/24 10:18:55;;;;;;;4.68;2.60;;;23.70;96.70;;;;;;5113372;27;20035;-74
2021/09/24 10:21:25;;;;;;;3.95;2.90;;;23.80;96.70;;;;;;5109553;27;20118;-74
2021/09/24 10:23:54;;;;;;;5.93;2.65;;;23.90;96.70;;;;;;5114916;27;20042;-73
2021/09/24 10:26:28;;;;;;;4.45;2.40;;;23.90;96.70;;;;;;5110263;27;20039;-73
2021/09/24 10:29:00;;;;;;;8.05;2.05;;;24.10;96.70;;;;;;5117145;27;20535;-74
2021/09/24 10:31:33;;;;;;;3.70;1.90;;;24.10;96.70;;;;;;5115890;27;20796;-74
2021/09/24 10:34:08;;;;;;;2.70;2.03;;;24.30;96.70;;;;;;5119164;27;20043;-74
2021/09/24 10:36:42;;;;;;;2.97;1.90;;;24.30;96.70;;;;;;5111409;27;20658;-74
2021/09/24 10:39:33;;;;;;;4.40;2.35;;;24.50;96.70;;;;;;5121856;27;20067;-74
2021/09/24 10:42:38;;;;;;;3.65;1.98;;;24.70;96.70;;;;;;5110498;27;20089;-74
2021/09/24 10:45:12;;;;;;;4.53;2.45;;;24.80;96.70;;;;;;5111031;27;20089;-74
2021/09/24 10:48:05;;;;;;;6.25;2.40;;;24.70;96.70;;;;;;5113377;27;20042;-74
2021/09/24 10:51:02;;;;;;;3.97;2.58;;;24.90;96.70;;;;;;5127638;27;20049;-74
2021/09/24 10:53:42;;;;;;;;;;;25.00;96.70;;;;;;5115546;27;20131;-74
2021/09/24 10:56:31;;;;;;;4.47;2.95;;;25.10;96.70;;;;;;5115007;27;20016;-74
2021/09/24 10:59:21;;;;;;;5.28;2.85;;;25.20;96.70;;;;;;5112695;27;20073;-74
2021/09/24 11:01:49;;;;;;;3.35;2.30;;;25.20;96.70;;;;;;5094379;28;20098;-74
2021/09/24 11:04:18;;;;;;;5.00;2.58;;;25.20;96.70;;;;;;5122841;27;20536;-74
2021/09/24 11:06:49;;;;;;;4.22;2.92;;;25.30;96.70;;;;;;5119284;27;20047;-74
2021/09/24 11:09:21;;;;;;;4.25;2.92;;;25.30;96.70;;;;;;5108545;27;20048;-74
2021/09/24 11:11:50;;;;;;;5.32;3.10;;;25.40;96.70;;;;;;5117437;27;20070;-74
2021/09/24 11:14:30;;;;;;;7.68;3.22;;;25.60;96.50;;;;;;5106976;28;20378;-73
2021/09/24 11:17:00;;;;;;;5.20;2.90;;;25.50;96.30;;;;;;5119409;27;20055;-74
2021/09/24 11:19:40;;;;;;;4.47;2.72;;;25.50;96.70;;;;;;5108806;27;20063;-74
2021/09/24 11:22:15;;;;;;;5.43;3.03;;;25.60;96.30;;;;;;5114907;27;20039;-74
2021/09/24 11:24:48;;;;;;;4.97;2.67;;;25.80;96.40;;;;;;5114119;27;20055;-74
2021/09/24 11:27:30;;;;;;;3.58;2.50;;;26.10;96.60;;;;;;5093335;28;20046;-74
2021/09/24 11:30:19;;;;;;;4.55;2.60;;;26.20;96.70;;;;;;5106678;27;20501;-74
2021/09/24 11:32:50;;;;;;;5.68;2.50;;;26.20;95.50;;;;;;5111645;27;20120;-74
2021/09/24 11:35:29;;;;;;;5.75;2.10;;;26.20;96.50;;;;;;5119634;27;20492;-74
2021/09/24 11:38:05;;;;;;;5.13;2.28;;;26.50;96.00;;;;;;5108999;28;20067;-74
2021/09/24 11:40:36;;;;;;;3.47;2.03;;;26.40;96.00;;;;;;5110290;28;20385;-73
2021/09/24 11:43:05;;;;;;;4.00;2.03;;;26.50;96.70;;;;;;5120782;28;20065;-74
2021/09/24 11:45:33;;;;;;;3.75;2.30;;;26.50;96.70;;;;;;5121947;27;20031;-74
2021/09/24 11:48:04;;;;;;;3.55;2.25;;;26.60;96.40;;;;;;5118227;27;20100;-74
2021/09/24 11:50:33;;;;;;;3.50;2.30;;;26.80;96.00;;;;;;5117166;27;20040;-74
2021/09/24 11:53:03;;;;;;;3.50;2.00;;;26.90;96.30;;;;;;5107808;27;20051;-74
2021/09/24 11:55:34;;;;;;;6.07;2.22;;;27.00;96.70;;;;;;5115500;27;20051;-73
2021/09/24 11:58:06;;;;;;;3.78;1.80;;;27.10;96.70;;;;;;5110823;27;20050;-74
2021/09/24 12:00:37;;;;;;;3.60;2.20;;;27.20;96.50;;;;;;5110631;27;20039;-74
2021/09/24 12:03:07;;;;;;;3.15;1.80;;;27.20;96.50;;;;;;5109777;27;20090;-74
2021/09/24 12:05:35;;;;;;;4.90;2.05;;;27.20;96.50;;;;;;5118965;27;20043;-73
2021/09/24 12:08:12;;;;;;;4.25;2.28;;;27.30;95.40;;;;;;5109482;27;20039;-73
2021/09/24 12:10:41;;;;;;;;;;;27.30;96.00;;;;;;5107878;28;20043;-74
2021/09/24 12:13:12;;;;;;;6.57;2.00;;;27.50;96.20;;;;;;5107698;27;19927;-74
2021/09/24 12:15:55;;;;;;;6.15;2.00;;;27.40;96.00;;;;;;5114386;27;20043;-73
2021/09/24 12:18:41;;;;;;;4.38;1.90;;;27.40;96.30;;;;;;5123163;27;20063;-73
2021/09/24 12:21:09;;;;;;;3.92;1.63;;;27.50;95.70;;;;;;5121755;27;20126;-74
2021/09/24 12:23:37;;;;;;;3.95;1.80;;;27.60;96.00;;;;;;5119975;27;20051;-74
2021/09/24 12:26:08;;;;;;;4.78;1.77;;;27.60;95.70;;;;;;5111486;27;20074;-74
2021/09/24 12:28:37;;;;;;;3.65;2.10;;;27.60;95.50;;;;;;5116303;27;20079;-74
2021/09/24 12:31:06;;;;;;;6.57;1.85;;;27.60;95.70;;;;;;5110141;27;20054;-74
2021/09/24 12:33:34;;;;;;;4.75;1.90;;;27.50;95.60;;;;;;5116963;27;20543;-74
2021/09/24 12:36:07;;;;;;;5.15;1.98;;;27.50;95.70;;;;;;5107665;27;20047;-74
2021/09/24 12:38:36;;;;;;;4.63;1.95;;;27.60;95.80;;;;;;5120362;27;20155;-74
2021/09/24 12:41:16;;;;;;;4.72;1.80;;;27.80;95.70;;;;;;5113102;27;20067;-74
2021/09/24 12:43:46;;;;;;;3.45;1.90;;;28.00;95.50;;;;;;5121039;27;20051;-74
2021/09/24 12:46:15;;;;;;;6.80;2.30;;;28.10;94.90;;;;;;5110360;27;20092;-74
2021/09/24 12:48:45;;;;;;;4.38;1.88;;;27.90;95.10;;;;;;5115514;27;20070;-74
2021/09/24 12:51:14;;;;;;;4.07;1.70;;;27.90;95.20;;;;;;5126549;27;20042;-74
2021/09/24 12:53:44;;;;;;;2.28;1.65;;;28.10;95.30;;;;;;5117029;27;20066;-74
2021/09/24 12:56:14;;;;;;;3.70;1.90;;;28.20;94.80;;;;;;5125433;27;20578;-74
2021/09/24 12:58:42;;;;;;;3.35;2.30;;;28.20;94.60;;;;;;5113691;27;20047;-74
2021/09/24 13:01:11;;;;;;;4.28;1.98;;;28.20;94.30;;;;;;5110063;27;20042;-73